sensor_id;sensor_type;location;lat;lon;timestamp;pressure;altitude;pressure_sealevel;temperature;humidity
31225;BME280;17847;31.524;74.366;2022-09-03T00:00:28;97919.63;;;30.50;72.76
31225;BME280;17847;31.524;74.366;2022-09-03T00:03:25;97923.34;;;30.58;71.95
31225;BME280;17847;31.524;74.366;2022-09-03T00:06:15;97919.59;;;30.70;71.75
31225;BME280;17847;31.524;74.366;2022-09-03T00:09:35;97920.59;;;30.81;71.83
31225;BME280;17847;31.524;74.366;2022-09-03T00:12:29;97929.81;;;30.66;72.22
31225;BME280;17847;31.524;74.366;2022-09-03T00:15:29;97934.22;;;30.70;71.68
31225;BME280;17847;31.524;74.366;2022-09-03T00:18:15;97933.00;;;30.68;72.08
31225;BME280;17847;31.524;74.366;2022-09-03T00:24:23;97933.69;;;30.41;72.75
31225;BME280;17847;31.524;74.366;2022-09-03T00:27:23;97933.16;;;30.55;72.08
31225;BME280;17847;31.524;74.366;2022-09-03T00:30:14;97933.03;;;30.48;73.29
31225;BME280;17847;31.524;74.366;2022-09-03T00:33:10;97941.78;;;30.50;72.33
31225;BME280;17847;31.524;74.366;2022-09-03T00:38:58;97940.75;;;30.58;71.99
31225;BME280;17847;31.524;74.366;2022-09-03T00:41:47;97954.47;;;30.16;73.34
31225;BME280;17847;31.524;74.366;2022-09-03T00:44:59;97956.72;;;30.10;73.82
31225;BME280;17847;31.524;74.366;2022-09-03T00:55:00;97951.88;;;30.23;73.80
31225;BME280;17847;31.524;74.366;2022-09-03T01:00:45;97956.38;;;30.31;73.70
31225;BME280;17847;31.524;74.366;2022-09-03T01:03:53;97974.84;;;30.08;73.93
31225;BME280;17847;31.524;74.366;2022-09-03T01:06:47;97976.41;;;30.24;73.90
31225;BME280;17847;31.524;74.366;2022-09-03T01:10:10;97974.16;;;30.30;73.66
31225;BME280;17847;31.524;74.366;2022-09-03T01:13:17;97981.53;;;30.42;73.79
31225;BME280;17847;31.524;74.366;2022-09-03T01:28:28;97997.91;;;29.96;74.92
31225;BME280;17847;31.524;74.366;2022-09-03T01:34:43;97992.72;;;30.65;72.84
31225;BME280;17847;31.524;74.366;2022-09-03T01:40:53;98019.00;;;30.36;73.30
31225;BME280;17847;31.524;74.366;2022-09-03T01:50:06;98020.09;;;30.51;73.09
31225;BME280;17847;31.524;74.366;2022-09-03T01:59:14;98011.44;;;30.91;72.17
31225;BME280;17847;31.524;74.366;2022-09-03T02:02:14;98010.31;;;30.76;72.81
31225;BME280;17847;31.524;74.366;2022-09-03T02:05:22;98026.44;;;31.10;72.28
31225;BME280;17847;31.524;74.366;2022-09-03T02:08:09;98012.03;;;31.23;71.68
31225;BME280;17847;31.524;74.366;2022-09-03T02:11:07;98019.00;;;31.14;72.02
31225;BME280;17847;31.524;74.366;2022-09-03T02:13:47;98021.75;;;31.14;72.30
31225;BME280;17847;31.524;74.366;2022-09-03T02:16:44;98014.25;;;31.37;71.10
31225;BME280;17847;31.524;74.366;2022-09-03T02:19:21;98021.56;;;31.69;71.09
31225;BME280;17847;31.524;74.366;2022-09-03T02:22:16;98015.22;;;31.68;70.03
31225;BME280;17847;31.524;74.366;2022-09-03T02:25:06;98016.97;;;31.80;70.05
31225;BME280;17847;31.524;74.366;2022-09-03T02:28:04;98016.47;;;31.48;70.26
31225;BME280;17847;31.524;74.366;2022-09-03T02:31:03;98015.94;;;31.65;70.03
31225;BME280;17847;31.524;74.366;2022-09-03T02:33:42;98010.59;;;31.76;70.74
31225;BME280;17847;31.524;74.366;2022-09-03T02:36:41;98020.31;;;31.66;70.35
31225;BME280;17847;31.524;74.366;2022-09-03T02:39:20;98020.53;;;31.80;70.65
31225;BME280;17847;31.524;74.366;2022-09-03T02:42:19;98019.19;;;32.21;69.63
31225;BME280;17847;31.524;74.366;2022-09-03T02:45:13;98017.72;;;32.30;69.16
31225;BME280;17847;31.524;74.366;2022-09-03T02:48:07;98012.50;;;32.55;68.60
31225;BME280;17847;31.524;74.366;2022-09-03T02:50:51;98016.50;;;32.01;69.29
31225;BME280;17847;31.524;74.366;2022-09-03T02:53:39;98014.94;;;32.57;67.31
31225;BME280;17847;31.524;74.366;2022-09-03T02:56:24;98012.34;;;32.41;66.56
31225;BME280;17847;31.524;74.366;2022-09-03T02:59:44;98015.63;;;32.50;64.51
31225;BME280;17847;31.524;74.366;2022-09-03T03:02:27;98016.88;;;32.87;65.28
31225;BME280;17847;31.524;74.366;2022-09-03T03:05:35;98028.34;;;32.82;64.95
31225;BME280;17847;31.524;74.366;2022-09-03T03:08:26;98033.59;;;32.90;63.81
31225;BME280;17847;31.524;74.366;2022-09-03T03:11:16;98026.84;;;32.31;64.51
31225;BME280;17847;31.524;74.366;2022-09-03T03:13:59;98026.81;;;32.88;63.41
31225;BME280;17847;31.524;74.366;2022-09-03T03:16:49;98023.00;;;32.69;63.08
31225;BME280;17847;31.524;74.366;2022-09-03T03:19:32;98033.59;;;32.90;64.28
31225;BME280;17847;31.524;74.366;2022-09-03T03:22:20;98021.56;;;33.13;62.71
31225;BME280;17847;31.524;74.366;2022-09-03T03:25:03;98021.72;;;32.60;64.19
31225;BME280;17847;31.524;74.366;2022-09-03T03:27:54;98025.63;;;33.23;64.05
31225;BME280;17847;31.524;74.366;2022-09-03T03:30:50;98026.25;;;33.09;61.93
31225;BME280;17847;31.524;74.366;2022-09-03T03:33:32;98028.66;;;33.48;60.98
31225;BME280;17847;31.524;74.366;2022-09-03T03:36:23;98031.28;;;33.71;59.71
31225;BME280;17847;31.524;74.366;2022-09-03T03:39:05;98029.78;;;33.88;59.95
31225;BME280;17847;31.524;74.366;2022-09-03T03:41:54;98036.88;;;33.74;58.16
31225;BME280;17847;31.524;74.366;2022-09-03T03:44:37;98035.28;;;33.77;60.75
31225;BME280;17847;31.524;74.366;2022-09-03T03:47:25;98034.94;;;33.86;58.98
31225;BME280;17847;31.524;74.366;2022-09-03T03:50:07;98037.72;;;33.86;59.89
31225;BME280;17847;31.524;74.366;2022-09-03T03:52:58;98034.59;;;33.91;55.49
31225;BME280;17847;31.524;74.366;2022-09-03T03:55:41;98035.59;;;34.17;56.78
31225;BME280;17847;31.524;74.366;2022-09-03T03:58:30;98036.22;;;33.99;57.81
31225;BME280;17847;31.524;74.366;2022-09-03T04:01:21;98037.34;;;33.87;56.28
31225;BME280;17847;31.524;74.366;2022-09-03T04:04:10;98039.56;;;34.16;57.38
31225;BME280;17847;31.524;74.366;2022-09-03T04:06:52;98037.28;;;34.32;57.77
31225;BME280;17847;31.524;74.366;2022-09-03T04:09:40;98033.66;;;34.28;56.71
31225;BME280;17847;31.524;74.366;2022-09-03T04:12:23;98041.34;;;34.52;55.59
31225;BME280;17847;31.524;74.366;2022-09-03T04:15:11;98037.03;;;34.66;54.22
31225;BME280;17847;31.524;74.366;2022-09-03T04:17:47;98035.88;;;34.67;56.56
31225;BME280;17847;31.524;74.366;2022-09-03T04:20:42;98031.59;;;34.87;54.49
31225;BME280;17847;31.524;74.366;2022-09-03T04:23:18;98033.16;;;34.88;52.43
31225;BME280;17847;31.524;74.366;2022-09-03T04:26:16;98035.22;;;35.06;53.70
31225;BME280;17847;31.524;74.366;2022-09-03T04:29:11;98032.00;;;34.97;53.23
31225;BME280;17847;31.524;74.366;2022-09-03T04:31:56;98030.94;;;35.41;53.08
31225;BME280;17847;31.524;74.366;2022-09-03T04:35:03;98029.75;;;35.49;50.10
31225;BME280;17847;31.524;74.366;2022-09-03T04:37:46;98025.34;;;36.02;51.60
31225;BME280;17847;31.524;74.366;2022-09-03T04:40:36;98031.31;;;36.29;48.93
31225;BME280;17847;31.524;74.366;2022-09-03T04:43:19;98024.91;;;36.29;48.21
31225;BME280;17847;31.524;74.366;2022-09-03T04:46:08;98023.34;;;36.31;47.68
31225;BME280;17847;31.524;74.366;2022-09-03T04:48:53;98027.13;;;36.88;47.29
31225;BME280;17847;31.524;74.366;2022-09-03T04:51:42;98026.91;;;37.31;46.19
31225;BME280;17847;31.524;74.366;2022-09-03T04:54:25;98032.59;;;37.16;47.25
31225;BME280;17847;31.524;74.366;2022-09-03T04:57:13;98025.47;;;37.64;44.09
31225;BME280;17847;31.524;74.366;2022-09-03T04:59:56;98025.41;;;37.71;44.32
31225;BME280;17847;31.524;74.366;2022-09-03T05:02:44;98025.44;;;37.68;45.40
31225;BME280;17847;31.524;74.366;2022-09-03T05:05:33;98020.16;;;37.77;46.32
31225;BME280;17847;31.524;74.366;2022-09-03T05:08:21;98026.59;;;37.74;44.61
31225;BME280;17847;31.524;74.366;2022-09-03T05:11:05;98023.50;;;37.65;44.12
31225;BME280;17847;31.524;74.366;2022-09-03T05:13:55;98022.97;;;38.22;46.72
31225;BME280;17847;31.524;74.366;2022-09-03T05:16:38;98015.25;;;37.92;44.71
31225;BME280;17847;31.524;74.366;2022-09-03T05:19:32;98013.22;;;37.44;43.25
31225;BME280;17847;31.524;74.366;2022-09-03T05:22:15;98014.56;;;37.25;45.68
31225;BME280;17847;31.524;74.366;2022-09-03T05:25:10;98007.66;;;37.40;46.86
31225;BME280;17847;31.524;74.366;2022-09-03T05:27:52;98007.31;;;37.83;44.62
31225;BME280;17847;31.524;74.366;2022-09-03T05:30:57;98011.38;;;37.75;46.69
31225;BME280;17847;31.524;74.366;2022-09-03T05:33:48;98001.91;;;37.61;47.70
31225;BME280;17847;31.524;74.366;2022-09-03T05:36:37;97992.97;;;37.77;46.04
31225;BME280;17847;31.524;74.366;2022-09-03T05:39:20;97992.31;;;37.63;47.72
31225;BME280;17847;31.524;74.366;2022-09-03T05:42:08;97992.97;;;38.19;47.48
31225;BME280;17847;31.524;74.366;2022-09-03T05:44:50;97991.44;;;37.69;46.17
31225;BME280;17847;31.524;74.366;2022-09-03T05:47:39;97994.97;;;37.77;47.90
31225;BME280;17847;31.524;74.366;2022-09-03T05:50:21;97993.28;;;38.28;45.40
31225;BME280;17847;31.524;74.366;2022-09-03T05:53:09;97991.97;;;37.95;43.61
31225;BME280;17847;31.524;74.366;2022-09-03T05:55:56;97988.97;;;38.20;44.43
31225;BME280;17847;31.524;74.366;2022-09-03T05:58:47;97982.09;;;38.25;44.24
31225;BME280;17847;31.524;74.366;2022-09-03T06:01:35;97983.25;;;38.27;43.55
31225;BME280;17847;31.524;74.366;2022-09-03T06:04:31;97982.47;;;38.61;44.37
31225;BME280;17847;31.524;74.366;2022-09-03T06:07:26;97976.13;;;38.57;43.60
31225;BME280;17847;31.524;74.366;2022-09-03T06:10:02;97969.28;;;38.58;41.97
31225;BME280;17847;31.524;74.366;2022-09-03T06:13:05;97959.09;;;38.03;43.71
31225;BME280;17847;31.524;74.366;2022-09-03T06:15:47;97967.91;;;37.59;45.01
31225;BME280;17847;31.524;74.366;2022-09-03T06:18:35;97962.59;;;37.76;45.07
31225;BME280;17847;31.524;74.366;2022-09-03T06:21:19;97961.13;;;37.98;45.08
31225;BME280;17847;31.524;74.366;2022-09-03T06:24:10;97962.59;;;38.14;43.82
31225;BME280;17847;31.524;74.366;2022-09-03T06:26:53;97963.84;;;38.44;43.82
31225;BME280;17847;31.524;74.366;2022-09-03T06:29:42;97961.38;;;38.49;46.12
31225;BME280;17847;31.524;74.366;2022-09-03T06:32:47;97959.66;;;38.90;42.78
31225;BME280;17847;31.524;74.366;2022-09-03T06:35:31;97950.13;;;38.53;44.91
31225;BME280;17847;31.524;74.366;2022-09-03T06:38:23;97943.22;;;38.61;44.09
31225;BME280;17847;31.524;74.366;2022-09-03T06:41:09;97937.81;;;38.47;44.79
31225;BME280;17847;31.524;74.366;2022-09-03T06:44:04;97933.75;;;38.48;43.10
31225;BME280;17847;31.524;74.366;2022-09-03T06:46:47;97942.66;;;38.08;44.15
31225;BME280;17847;31.524;74.366;2022-09-03T06:49:42;97936.94;;;38.50;42.55
31225;BME280;17847;31.524;74.366;2022-09-03T06:52:37;97933.28;;;38.56;43.27
31225;BME280;17847;31.524;74.366;2022-09-03T06:55:21;97933.97;;;38.33;43.84
31225;BME280;17847;31.524;74.366;2022-09-03T06:58:09;97928.69;;;38.05;42.91
31225;BME280;17847;31.524;74.366;2022-09-03T07:00:52;97926.88;;;38.22;43.58
31225;BME280;17847;31.524;74.366;2022-09-03T07:03:42;97923.09;;;38.70;40.42
31225;BME280;17847;31.524;74.366;2022-09-03T07:06:26;97922.91;;;38.81;41.34
31225;BME280;17847;31.524;74.366;2022-09-03T07:09:17;97914.31;;;38.68;43.67
31225;BME280;17847;31.524;74.366;2022-09-03T07:12:00;97910.44;;;37.89;44.20
31225;BME280;17847;31.524;74.366;2022-09-03T07:14:58;97907.69;;;38.51;43.22
31225;BME280;17847;31.524;74.366;2022-09-03T07:17:34;97911.09;;;38.35;42.09
31225;BME280;17847;31.524;74.366;2022-09-03T07:20:29;97906.75;;;38.30;42.56
31225;BME280;17847;31.524;74.366;2022-09-03T07:23:12;97895.38;;;38.45;42.15
31225;BME280;17847;31.524;74.366;2022-09-03T07:26:06;97893.41;;;38.42;44.43
31225;BME280;17847;31.524;74.366;2022-09-03T07:28:50;97885.66;;;38.53;45.16
31225;BME280;17847;31.524;74.366;2022-09-03T07:31:47;97882.78;;;38.60;42.84
31225;BME280;17847;31.524;74.366;2022-09-03T07:34:30;97876.78;;;38.58;43.20
31225;BME280;17847;31.524;74.366;2022-09-03T07:37:19;97875.03;;;38.37;43.88
31225;BME280;17847;31.524;74.366;2022-09-03T07:40:02;97873.97;;;38.58;42.27
31225;BME280;17847;31.524;74.366;2022-09-03T07:42:55;97867.72;;;38.47;43.82
31225;BME280;17847;31.524;74.366;2022-09-03T07:45:49;97864.03;;;38.81;42.87
31225;BME280;17847;31.524;74.366;2022-09-03T07:48:39;97859.22;;;38.50;42.72
31225;BME280;17847;31.524;74.366;2022-09-03T07:51:25;97865.63;;;37.89;42.83
31225;BME280;17847;31.524;74.366;2022-09-03T07:54:13;97857.06;;;38.00;43.09
31225;BME280;17847;31.524;74.366;2022-09-03T07:56:56;97854.03;;;38.22;42.74
31225;BME280;17847;31.524;74.366;2022-09-03T07:59:45;97847.00;;;38.68;42.29
31225;BME280;17847;31.524;74.366;2022-09-03T08:02:37;97843.53;;;38.60;44.30
31225;BME280;17847;31.524;74.366;2022-09-03T08:05:36;97843.44;;;38.64;42.21
31225;BME280;17847;31.524;74.366;2022-09-03T08:08:17;97839.59;;;38.23;41.12
31225;BME280;17847;31.524;74.366;2022-09-03T08:11:17;97830.91;;;38.14;42.79
31225;BME280;17847;31.524;74.366;2022-09-03T08:14:06;97825.06;;;38.32;43.62
31225;BME280;17847;31.524;74.366;2022-09-03T08:17:01;97820.91;;;38.44;41.27
31225;BME280;17847;31.524;74.366;2022-09-03T08:19:43;97814.09;;;38.14;40.93
31225;BME280;17847;31.524;74.366;2022-09-03T08:22:33;97814.34;;;37.92;44.42
31225;BME280;17847;31.524;74.366;2022-09-03T08:25:09;97805.81;;;38.34;41.93
31225;BME280;17847;31.524;74.366;2022-09-03T08:28:05;97810.09;;;38.15;40.40
31225;BME280;17847;31.524;74.366;2022-09-03T08:30:46;97801.09;;;38.27;41.63
31225;BME280;17847;31.524;74.366;2022-09-03T08:33:45;97789.75;;;38.38;41.46
31225;BME280;17847;31.524;74.366;2022-09-03T08:36:29;97786.22;;;38.03;44.70
31225;BME280;17847;31.524;74.366;2022-09-03T08:39:18;97781.16;;;37.56;42.30
31225;BME280;17847;31.524;74.366;2022-09-03T08:42:17;97773.94;;;37.93;43.24
31225;BME280;17847;31.524;74.366;2022-09-03T08:45:09;97771.97;;;37.90;44.21
31225;BME280;17847;31.524;74.366;2022-09-03T08:48:09;97767.06;;;37.98;42.38
31225;BME280;17847;31.524;74.366;2022-09-03T08:51:06;97757.69;;;37.81;43.41
31225;BME280;17847;31.524;74.366;2022-09-03T08:53:51;97749.44;;;36.94;42.23
31225;BME280;17847;31.524;74.366;2022-09-03T08:56:41;97749.22;;;37.54;46.57
31225;BME280;17847;31.524;74.366;2022-09-03T08:59:25;97750.53;;;37.80;41.46
31225;BME280;17847;31.524;74.366;2022-09-03T09:05:13;97732.47;;;37.50;43.00
31225;BME280;17847;31.524;74.366;2022-09-03T09:11:36;97733.88;;;37.66;41.38
31225;BME280;17847;31.524;74.366;2022-09-03T09:20:50;97697.97;;;37.91;40.23
31225;BME280;17847;31.524;74.366;2022-09-03T09:23:43;97703.16;;;37.58;41.57
31225;BME280;17847;31.524;74.366;2022-09-03T09:26:33;97702.88;;;36.77;40.73
31225;BME280;17847;31.524;74.366;2022-09-03T09:29:10;97680.09;;;37.16;41.78
31225;BME280;17847;31.524;74.366;2022-09-03T09:32:09;97682.34;;;37.59;42.01
31225;BME280;17847;31.524;74.366;2022-09-03T09:35:10;97676.75;;;37.63;43.13
31225;BME280;17847;31.524;74.366;2022-09-03T09:38:05;97676.66;;;37.70;40.24
31225;BME280;17847;31.524;74.366;2022-09-03T09:40:49;97663.72;;;37.49;41.86
31225;BME280;17847;31.524;74.366;2022-09-03T09:43:39;97655.50;;;37.66;40.87
31225;BME280;17847;31.524;74.366;2022-09-03T09:46:23;97653.63;;;37.55;40.07
31225;BME280;17847;31.524;74.366;2022-09-03T09:49:30;97648.13;;;37.48;40.91
31225;BME280;17847;31.524;74.366;2022-09-03T09:52:16;97635.56;;;37.60;39.89
31225;BME280;17847;31.524;74.366;2022-09-03T09:55:13;97634.13;;;37.79;39.63
31225;BME280;17847;31.524;74.366;2022-09-03T09:58:10;97628.47;;;37.52;40.22
31225;BME280;17847;31.524;74.366;2022-09-03T10:01:03;97617.38;;;37.45;41.65
31225;BME280;17847;31.524;74.366;2022-09-03T10:04:40;97614.34;;;37.32;40.28
31225;BME280;17847;31.524;74.366;2022-09-03T10:07:28;97606.91;;;37.21;40.05
31225;BME280;17847;31.524;74.366;2022-09-03T10:13:12;97608.16;;;37.17;42.16
31225;BME280;17847;31.524;74.366;2022-09-03T10:16:03;97600.03;;;37.26;42.73
31225;BME280;17847;31.524;74.366;2022-09-03T10:22:08;97594.44;;;37.26;41.87
31225;BME280;17847;31.524;74.366;2022-09-03T10:25:02;97589.81;;;37.43;41.66
31225;BME280;17847;31.524;74.366;2022-09-03T10:27:45;97590.88;;;37.53;41.40
31225;BME280;17847;31.524;74.366;2022-09-03T10:33:52;97575.19;;;37.63;41.14
31225;BME280;17847;31.524;74.366;2022-09-03T10:47:03;97557.88;;;37.10;43.64
31225;BME280;17847;31.524;74.366;2022-09-03T10:56:24;97550.84;;;37.29;44.17
31225;BME280;17847;31.524;74.366;2022-09-03T10:59:31;97549.75;;;37.22;43.63
31225;BME280;17847;31.524;74.366;2022-09-03T11:05:55;97544.78;;;37.34;44.22
31225;BME280;17847;31.524;74.366;2022-09-03T11:08:52;97534.34;;;37.38;45.20
31225;BME280;17847;31.524;74.366;2022-09-03T11:11:58;97532.38;;;37.35;43.16
31225;BME280;17847;31.524;74.366;2022-09-03T11:14:46;97531.94;;;37.36;42.84
31225;BME280;17847;31.524;74.366;2022-09-03T11:18:27;97531.03;;;37.43;43.39
31225;BME280;17847;31.524;74.366;2022-09-03T11:21:07;97525.44;;;37.43;43.29
31225;BME280;17847;31.524;74.366;2022-09-03T11:27:04;97523.53;;;37.09;44.20
31225;BME280;17847;31.524;74.366;2022-09-03T11:30:09;97522.88;;;36.67;43.60
31225;BME280;17847;31.524;74.366;2022-09-03T11:35:43;97524.06;;;36.97;44.58
31225;BME280;17847;31.524;74.366;2022-09-03T11:38:28;97522.47;;;36.99;44.80
31225;BME280;17847;31.524;74.366;2022-09-03T11:44:19;97521.09;;;36.80;44.81
31225;BME280;17847;31.524;74.366;2022-09-03T11:47:21;97518.41;;;36.73;44.75
31225;BME280;17847;31.524;74.366;2022-09-03T11:50:06;97516.78;;;36.72;44.44
31225;BME280;17847;31.524;74.366;2022-09-03T11:56:38;97516.72;;;36.79;46.21
31225;BME280;17847;31.524;74.366;2022-09-03T12:02:41;97522.31;;;36.79;45.80
31225;BME280;17847;31.524;74.366;2022-09-03T12:05:17;97516.34;;;36.77;45.70
31225;BME280;17847;31.524;74.366;2022-09-03T12:20:14;97495.03;;;36.53;47.76
31225;BME280;17847;31.524;74.366;2022-09-03T12:23:04;97502.59;;;36.56;48.22
31225;BME280;17847;31.524;74.366;2022-09-03T12:25:51;97504.75;;;36.41;47.44
31225;BME280;17847;31.524;74.366;2022-09-03T12:28:50;97496.16;;;36.59;46.16
31225;BME280;17847;31.524;74.366;2022-09-03T12:31:43;97497.81;;;36.56;47.13
31225;BME280;17847;31.524;74.366;2022-09-03T12:34:36;97504.50;;;36.28;46.73
31225;BME280;17847;31.524;74.366;2022-09-03T12:37:21;97495.81;;;36.19;46.75
31225;BME280;17847;31.524;74.366;2022-09-03T12:40:41;97493.41;;;36.21;46.49
31225;BME280;17847;31.524;74.366;2022-09-03T12:43:37;97480.22;;;36.25;45.82
31225;BME280;17847;31.524;74.366;2022-09-03T12:46:32;97487.28;;;35.92;48.39
31225;BME280;17847;31.524;74.366;2022-09-03T12:49:13;97487.06;;;36.17;47.22
31225;BME280;17847;31.524;74.366;2022-09-03T12:55:27;97478.22;;;36.22;48.74
31225;BME280;17847;31.524;74.366;2022-09-03T13:01:12;97480.66;;;36.20;49.05
31225;BME280;17847;31.524;74.366;2022-09-03T13:04:12;97484.72;;;36.12;48.95
31225;BME280;17847;31.524;74.366;2022-09-03T13:07:04;97488.84;;;35.96;48.67
31225;BME280;17847;31.524;74.366;2022-09-03T13:10:03;97490.47;;;35.90;49.38
31225;BME280;17847;31.524;74.366;2022-09-03T13:12:46;97486.44;;;35.98;48.46
31225;BME280;17847;31.524;74.366;2022-09-03T13:15:34;97492.94;;;35.84;49.54
31225;BME280;17847;31.524;74.366;2022-09-03T13:18:30;97494.13;;;35.87;50.19
31225;BME280;17847;31.524;74.366;2022-09-03T13:33:53;97492.78;;;36.02;50.14
31225;BME280;17847;31.524;74.366;2022-09-03T13:36:55;97489.38;;;35.80;50.39
31225;BME280;17847;31.524;74.366;2022-09-03T13:40:18;97492.53;;;35.86;51.48
31225;BME280;17847;31.524;74.366;2022-09-03T13:43:26;97494.97;;;35.80;51.18
31225;BME280;17847;31.524;74.366;2022-09-03T13:56:14;97508.44;;;35.37;48.78
31225;BME280;17847;31.524;74.366;2022-09-03T14:09:02;97517.38;;;35.03;50.01
31225;BME280;17847;31.524;74.366;2022-09-03T14:12:13;97510.56;;;35.18;49.40
31225;BME280;17847;31.524;74.366;2022-09-03T14:21:04;97534.00;;;35.28;50.07
31225;BME280;17847;31.524;74.366;2022-09-03T14:24:15;97539.25;;;35.08;51.30
31225;BME280;17847;31.524;74.366;2022-09-03T14:27:08;97539.72;;;34.99;49.12
31225;BME280;17847;31.524;74.366;2022-09-03T14:29:52;97542.47;;;35.03;50.63
31225;BME280;17847;31.524;74.366;2022-09-03T14:38:53;97560.84;;;34.93;49.72
31225;BME280;17847;31.524;74.366;2022-09-03T14:45:13;97563.66;;;34.86;49.77
31225;BME280;17847;31.524;74.366;2022-09-03T14:48:24;97571.56;;;34.95;49.45
31225;BME280;17847;31.524;74.366;2022-09-03T15:01:04;97570.88;;;34.62;49.53
31225;BME280;17847;31.524;74.366;2022-09-03T15:04:37;97573.28;;;34.49;49.74
31225;BME280;17847;31.524;74.366;2022-09-03T15:07:32;97575.72;;;34.36;51.93
31225;BME280;17847;31.524;74.366;2022-09-03T15:10:44;97569.72;;;34.48;51.61
31225;BME280;17847;31.524;74.366;2022-09-03T15:13:36;97573.34;;;34.24;52.26
31225;BME280;17847;31.524;74.366;2022-09-03T15:16:59;97569.38;;;34.25;51.43
31225;BME280;17847;31.524;74.366;2022-09-03T15:19:42;97574.16;;;34.21;52.56
31225;BME280;17847;31.524;74.366;2022-09-03T15:25:43;97584.03;;;34.14;51.29
31225;BME280;17847;31.524;74.366;2022-09-03T15:31:46;97584.06;;;34.07;50.24
31225;BME280;17847;31.524;74.366;2022-09-03T15:35:15;97592.41;;;33.97;50.63
31225;BME280;17847;31.524;74.366;2022-09-03T15:38:02;97590.03;;;33.81;51.67
31225;BME280;17847;31.524;74.366;2022-09-03T15:41:05;97586.00;;;33.60;54.73
31225;BME280;17847;31.524;74.366;2022-09-03T15:43:50;97590.72;;;33.42;54.25
31225;BME280;17847;31.524;74.366;2022-09-03T15:47:07;97601.13;;;33.66;55.58
31225;BME280;17847;31.524;74.366;2022-09-03T15:50:36;97595.53;;;33.48;55.49
31225;BME280;17847;31.524;74.366;2022-09-03T15:54:20;97599.56;;;33.65;55.07
31225;BME280;17847;31.524;74.366;2022-09-03T16:00:25;97591.63;;;33.74;55.18
31225;BME280;17847;31.524;74.366;2022-09-03T16:03:12;97589.19;;;33.62;55.66
31225;BME280;17847;31.524;74.366;2022-09-03T16:06:19;97582.44;;;33.67;55.11
31225;BME280;17847;31.524;74.366;2022-09-03T16:18:54;97587.94;;;33.45;55.64
31225;BME280;17847;31.524;74.366;2022-09-03T16:27:37;97576.00;;;33.23;55.32
31225;BME280;17847;31.524;74.366;2022-09-03T16:42:38;97566.91;;;33.48;53.77
31225;BME280;17847;31.524;74.366;2022-09-03T16:45:40;97574.84;;;33.42;54.75
31225;BME280;17847;31.524;74.366;2022-09-03T16:49:07;97566.13;;;33.58;53.94
31225;BME280;17847;31.524;74.366;2022-09-03T16:55:24;97569.28;;;33.39;54.35
31225;BME280;17847;31.524;74.366;2022-09-03T17:01:18;97563.66;;;33.24;55.50
31225;BME280;17847;31.524;74.366;2022-09-03T17:04:39;97561.28;;;33.19;55.51
31225;BME280;17847;31.524;74.366;2022-09-03T17:07:38;97564.06;;;33.23;54.94
31225;BME280;17847;31.524;74.366;2022-09-03T17:10:48;97562.81;;;33.06;55.73
31225;BME280;17847;31.524;74.366;2022-09-03T17:13:51;97557.34;;;33.27;55.82
31225;BME280;17847;31.524;74.366;2022-09-03T17:16:45;97557.69;;;33.15;55.43
31225;BME280;17847;31.524;74.366;2022-09-03T17:20:07;97558.94;;;33.35;55.52
31225;BME280;17847;31.524;74.366;2022-09-03T17:26:27;97567.66;;;33.30;55.50
31225;BME280;17847;31.524;74.366;2022-09-03T17:42:32;97583.13;;;33.21;55.35
31225;BME280;17847;31.524;74.366;2022-09-03T17:49:05;97583.97;;;33.39;54.86
31225;BME280;17847;31.524;74.366;2022-09-03T17:54:53;97581.13;;;33.25;55.80
31225;BME280;17847;31.524;74.366;2022-09-03T17:57:44;97584.31;;;33.20;55.56
31225;BME280;17847;31.524;74.366;2022-09-03T18:00:43;97592.25;;;33.18;56.30
31225;BME280;17847;31.524;74.366;2022-09-03T18:03:31;97595.34;;;33.05;56.48
31225;BME280;17847;31.524;74.366;2022-09-03T18:09:36;97594.13;;;32.99;57.90
31225;BME280;17847;31.524;74.366;2022-09-03T18:13:11;97603.25;;;33.00;57.22
31225;BME280;17847;31.524;74.366;2022-09-03T18:15:58;97603.22;;;32.89;58.17
31225;BME280;17847;31.524;74.366;2022-09-03T18:19:20;97606.38;;;32.84;58.17
31225;BME280;17847;31.524;74.366;2022-09-03T18:22:10;97603.13;;;32.74;58.34
31225;BME280;17847;31.524;74.366;2022-09-03T18:25:16;97599.97;;;32.76;58.70
31225;BME280;17847;31.524;74.366;2022-09-03T18:28:22;97596.84;;;32.81;59.38
31225;BME280;17847;31.524;74.366;2022-09-03T18:31:33;97590.88;;;32.79;60.52
31225;BME280;17847;31.524;74.366;2022-09-03T18:34:35;97582.47;;;32.65;60.16
31225;BME280;17847;31.524;74.366;2022-09-03T18:37:50;97578.00;;;32.53;61.33
31225;BME280;17847;31.524;74.366;2022-09-03T18:41:11;97576.84;;;32.57;61.54
31225;BME280;17847;31.524;74.366;2022-09-03T18:48:26;97573.59;;;32.45;61.58
31225;BME280;17847;31.524;74.366;2022-09-03T18:51:41;97566.09;;;32.52;61.52
31225;BME280;17847;31.524;74.366;2022-09-03T19:01:39;97560.38;;;32.27;63.67
31225;BME280;17847;31.524;74.366;2022-09-03T19:05:09;97554.09;;;32.37;64.05
31225;BME280;17847;31.524;74.366;2022-09-03T19:21:51;97552.78;;;32.17;64.70
31225;BME280;17847;31.524;74.366;2022-09-03T19:25:10;97551.63;;;32.25;65.28
31225;BME280;17847;31.524;74.366;2022-09-03T19:28:20;97553.53;;;32.14;65.24
31225;BME280;17847;31.524;74.366;2022-09-03T19:31:44;97539.34;;;32.23;65.68
31225;BME280;17847;31.524;74.366;2022-09-03T19:42:09;97536.50;;;32.15;65.40
31225;BME280;17847;31.524;74.366;2022-09-03T19:45:41;97544.84;;;32.19;66.73
31225;BME280;17847;31.524;74.366;2022-09-03T19:55:56;97539.22;;;32.05;67.49
31225;BME280;17847;31.524;74.366;2022-09-03T19:59:22;97533.63;;;32.01;67.31
31225;BME280;17847;31.524;74.366;2022-09-03T20:02:26;97533.16;;;31.92;66.92